Time;durP1;ratioP1;P1;durP2;ratioP2;P2;SDS_P1;SDS_P2;PMS_P1;PMS_P2;Temp;Humidity;BMP_temperature;BMP_pressure;BME280_temperature;BME280_humidity;BME280_pressure;Samples;Min_cycle;Max_cycle;Signal;HPM_P1;HPM_P2
2021/11/07 00:05:05;;;;;;;44.85;25.33;;;5.10;92.40;;;;;;5021291;28;20032;-77
2021/11/07 00:12:47;;;;;;;44.97;24.65;;;5.00;92.50;;;;;;5034386;28;20057;-76
2021/11/07 00:15:15;;;;;;;51.22;24.13;;;5.00;92.50;;;;;;5034914;28;20032;-77
2021/11/07 00:17:46;;;;;;;90.30;33.47;;;5.00;92.60;;;;;;5033688;28;20033;-77
2021/11/07 00:20:21;;;;;;;131.02;39.47;;;5.10;92.60;;;;;;5042707;28;20367;-77
2021/11/07 00:23:03;;;;;;;233.50;60.58;;;5.00;92.50;;;;;;5039735;28;20025;-76
2021/11/07 00:28:08;;;;;;;255.20;68.45;;;4.90;92.70;;;;;;5035328;28;20021;-76
2021/11/07 00:38:14;;;;;;;92.18;38.17;;;4.80;93.20;;;;;;5034410;28;20107;-76
2021/11/07 00:40:46;;;;;;;58.13;30.95;;;4.80;93.40;;;;;;5032395;28;20029;-77
2021/11/07 00:48:28;;;;;;;30.85;22.00;;;4.80;93.40;;;;;;5034280;28;20068;-77
2021/11/07 00:56:23;;;;;;;30.95;20.80;;;4.80;93.10;;;;;;5033895;28;20142;-75
2021/11/07 00:59:15;;;;;;;30.35;20.00;;;4.80;93.20;;;;;;5032641;28;20079;-78
2021/11/07 01:01:48;;;;;;;28.42;20.10;;;4.80;93.20;;;;;;5021845;28;20013;-78
2021/11/07 01:04:14;;;;;;;26.85;20.90;;;4.80;93.20;;;;;;5032557;28;20029;-78
2021/11/07 01:06:41;;;;;;;30.83;21.23;;;4.80;93.20;;;;;;5032702;28;20337;-77
2021/11/07 01:09:08;;;;;;;31.33;21.95;;;4.80;93.10;;;;;;5032593;28;20120;-78
2021/11/07 01:11:34;;;;;;;25.25;20.30;;;4.80;92.90;;;;;;5032415;28;20451;-77
2021/11/07 01:14:00;;;;;;;27.90;21.55;;;4.80;92.90;;;;;;5022212;28;20032;-78
2021/11/07 01:16:26;;;;;;;26.73;19.73;;;4.80;92.70;;;;;;5026569;28;20018;-77
2021/11/07 01:18:52;;;;;;;25.65;20.23;;;4.80;92.70;;;;;;5031952;28;20040;-77
2021/11/07 01:21:18;;;;;;;28.98;22.27;;;4.80;92.60;;;;;;5039749;28;20409;-78
2021/11/07 01:23:55;;;;;;;26.80;19.27;;;4.80;92.50;;;;;;5033892;28;20018;-77
2021/11/07 01:26:37;;;;;;;27.02;21.83;;;4.70;92.50;;;;;;5028838;28;20029;-77
2021/11/07 01:31:36;;;;;;;27.67;22.13;;;4.70;92.60;;;;;;5033711;28;20033;-78
2021/11/07 01:34:02;;;;;;;28.15;22.52;;;4.70;92.50;;;;;;5033571;28;20025;-78
2021/11/07 01:39:06;;;;;;;29.52;21.33;;;4.70;93.00;;;;;;5029803;28;20021;-77
2021/11/07 01:41:45;;;;;;;29.35;23.83;;;4.80;92.80;;;;;;5032233;28;20022;-78
2021/11/07 01:44:11;;;;;;;33.83;28.90;;;4.80;92.50;;;;;;5032765;28;20148;-78
2021/11/07 01:46:41;;;;;;;31.80;25.45;;;4.70;92.30;;;;;;5034648;28;20026;-77
2021/11/07 01:49:13;;;;;;;25.45;21.17;;;4.60;92.50;;;;;;5025025;28;20074;-77
2021/11/07 01:51:52;;;;;;;29.60;23.30;;;4.50;92.80;;;;;;5032215;28;20474;-77
2021/11/07 01:54:30;;;;;;;27.38;20.92;;;4.50;92.80;;;;;;5033744;28;20044;-77
2021/11/07 01:56:56;;;;;;;21.88;17.40;;;4.40;92.90;;;;;;5031770;28;20459;-77
2021/11/07 01:59:22;;;;;;;24.60;19.13;;;4.40;93.30;;;;;;5033501;28;20024;-78
2021/11/07 02:01:58;;;;;;;23.58;16.85;;;4.40;93.40;;;;;;5033482;28;20021;-78
2021/11/07 02:04:24;;;;;;;24.05;18.27;;;4.40;93.70;;;;;;5033622;28;20018;-77
2021/11/07 02:06:50;;;;;;;24.52;20.08;;;4.40;93.90;;;;;;5033416;28;20037;-77
2021/11/07 02:09:16;;;;;;;25.92;22.10;;;4.40;94.00;;;;;;5031859;28;20100;-78
2021/11/07 02:11:42;;;;;;;25.20;22.10;;;4.40;94.10;;;;;;5032255;28;20097;-77
2021/11/07 02:14:09;;;;;;;26.45;23.25;;;4.40;94.00;;;;;;5041646;28;20029;-77
2021/11/07 02:16:35;;;;;;;27.08;23.73;;;4.40;93.80;;;;;;5037989;28;20021;-77
2021/11/07 02:19:01;;;;;;;26.17;23.25;;;4.40;93.50;;;;;;5032919;28;20032;-78
2021/11/07 02:21:26;;;;;;;24.98;21.10;;;4.40;93.70;;;;;;5031678;28;20021;-77
2021/11/07 02:23:52;;;;;;;27.60;21.73;;;4.30;93.70;;;;;;5032831;28;20029;-77
2021/11/07 02:26:20;;;;;;;27.25;22.48;;;4.30;93.70;;;;;;5034109;28;20025;-77
2021/11/07 02:28:47;;;;;;;28.00;22.25;;;4.30;93.70;;;;;;5036780;28;20021;-77
2021/11/07 02:31:15;;;;;;;28.42;20.95;;;4.30;93.70;;;;;;5036359;28;20049;-78
2021/11/07 02:33:42;;;;;;;26.98;22.15;;;4.20;93.90;;;;;;5036542;28;20469;-78
2021/11/07 02:36:19;;;;;;;29.23;24.65;;;4.30;94.10;;;;;;5036517;28;20021;-77
2021/11/07 02:38:46;;;;;;;27.58;22.98;;;4.30;94.00;;;;;;5036418;28;20017;-76
2021/11/07 02:41:12;;;;;;;31.02;22.60;;;4.20;93.90;;;;;;5036623;28;20394;-77
2021/11/07 02:43:40;;;;;;;23.10;18.38;;;4.20;94.10;;;;;;5022668;28;20041;-77
2021/11/07 02:46:06;;;;;;;29.63;21.23;;;4.20;94.30;;;;;;5036525;28;20522;-78
2021/11/07 02:48:32;;;;;;;26.58;21.17;;;4.20;94.50;;;;;;5036219;28;20025;-77
2021/11/07 02:50:58;;;;;;;27.40;20.40;;;4.20;94.60;;;;;;5036069;28;20013;-77
2021/11/07 02:53:23;;;;;;;25.83;20.77;;;4.20;94.90;;;;;;5036007;28;20030;-77
2021/11/07 02:55:49;;;;;;;29.98;25.25;;;4.30;95.00;;;;;;5036214;28;20204;-78
2021/11/07 02:58:15;;;;;;;32.10;26.65;;;4.30;94.80;;;;;;5036217;28;20033;-77
2021/11/07 03:00:40;;;;;;;27.33;23.10;;;4.30;94.70;;;;;;5034240;28;20025;-78
2021/11/07 03:03:06;;;;;;;28.10;22.90;;;4.30;94.80;;;;;;5037686;28;20037;-77
2021/11/07 03:05:34;;;;;;;30.20;23.45;;;4.30;94.90;;;;;;5033704;28;20044;-77
2021/11/07 03:07:59;;;;;;;27.13;21.10;;;4.30;94.90;;;;;;5030891;28;20017;-78
2021/11/07 03:10:29;;;;;;;24.88;20.48;;;4.30;95.10;;;;;;5044438;28;20088;-77
2021/11/07 03:13:12;;;;;;;24.20;20.33;;;4.30;95.10;;;;;;5037454;28;20032;-78
2021/11/07 03:15:40;;;;;;;25.13;22.48;;;4.30;95.00;;;;;;5037818;28;20029;-78
2021/11/07 03:18:07;;;;;;;26.38;22.75;;;4.30;95.00;;;;;;5039344;28;20017;-77
2021/11/07 03:20:33;;;;;;;27.83;24.83;;;4.30;95.20;;;;;;5020911;28;20022;-77
2021/11/07 03:23:00;;;;;;;29.00;24.27;;;4.30;95.00;;;;;;5035631;28;20041;-78
2021/11/07 03:25:26;;;;;;;25.17;20.35;;;4.40;94.80;;;;;;5035605;28;20021;-78
2021/11/07 03:27:52;;;;;;;22.88;18.40;;;4.40;94.60;;;;;;5035894;28;20063;-78
2021/11/07 03:31:11;;;;;;;20.73;17.88;;;4.40;94.30;;;;;;5034622;28;20023;-78
2021/11/07 03:33:43;;;;;;;20.80;17.65;;;4.40;94.10;;;;;;5025202;28;20374;-77
2021/11/07 03:36:03;;;;;;;23.30;17.95;;;4.40;94.20;;;;;;5034788;28;20033;-77
2021/11/07 03:38:29;;;;;;;25.55;18.50;;;4.50;93.90;;;;;;5036084;28;20080;-78
2021/11/07 03:40:55;;;;;;;24.40;19.63;;;4.40;93.60;;;;;;5034028;28;20052;-78
2021/11/07 03:43:25;;;;;;;22.77;18.65;;;4.50;93.60;;;;;;5035073;28;20096;-77
2021/11/07 03:45:50;;;;;;;22.80;18.52;;;4.50;93.50;;;;;;5035367;28;20021;-77
2021/11/07 03:48:16;;;;;;;24.58;19.45;;;4.40;93.30;;;;;;5034967;28;20188;-77
2021/11/07 03:50:44;;;;;;;26.80;19.33;;;4.40;93.40;;;;;;5035119;28;20025;-77
2021/11/07 03:53:10;;;;;;;24.42;18.55;;;4.40;93.50;;;;;;5035437;28;20028;-76
2021/11/07 03:55:36;;;;;;;22.02;18.00;;;4.40;93.60;;;;;;5033687;28;20018;-77
2021/11/07 03:58:02;;;;;;;23.67;19.02;;;4.40;93.70;;;;;;5034067;28;20045;-77
2021/11/07 04:00:28;;;;;;;25.52;19.02;;;4.30;93.60;;;;;;5036203;28;20013;-77
2021/11/07 04:02:56;;;;;;;24.75;19.38;;;4.40;93.60;;;;;;5040234;28;20033;-76
2021/11/07 04:05:23;;;;;;;31.50;21.33;;;4.40;93.70;;;;;;5042968;28;20108;-77
2021/11/07 04:07:50;;;;;;;28.10;20.90;;;4.30;93.70;;;;;;5041893;28;20025;-77
2021/11/07 04:10:17;;;;;;;30.13;22.75;;;4.30;93.70;;;;;;5035619;28;20032;-76
2021/11/07 04:12:43;;;;;;;31.20;24.10;;;4.30;93.50;;;;;;5034839;28;20055;-77
2021/11/07 04:15:11;;;;;;;33.10;26.52;;;4.20;93.70;;;;;;5033732;28;20348;-77
2021/11/07 04:17:37;;;;;;;33.25;25.10;;;4.10;94.10;;;;;;5033082;28;20021;-77
2021/11/07 04:20:07;;;;;;;33.00;26.17;;;4.10;94.70;;;;;;5034865;28;20448;-77
2021/11/07 04:22:33;;;;;;;31.90;25.30;;;4.10;95.00;;;;;;5031308;28;20026;-77
2021/11/07 04:24:59;;;;;;;32.80;26.08;;;4.10;95.10;;;;;;5023791;28;20071;-77
2021/11/07 04:27:25;;;;;;;35.55;26.20;;;4.10;94.90;;;;;;5033113;28;20056;-77
2021/11/07 04:29:51;;;;;;;31.88;24.52;;;4.10;94.90;;;;;;5034498;28;20463;-78
2021/11/07 04:32:17;;;;;;;39.67;29.42;;;4.10;95.20;;;;;;5033276;28;20159;-77
2021/11/07 04:34:44;;;;;;;40.28;30.88;;;4.00;95.20;;;;;;5034404;28;20021;-76
2021/11/07 04:37:09;;;;;;;41.00;31.58;;;4.00;95.20;;;;;;5034452;28;20022;-77
2021/11/07 04:39:36;;;;;;;37.30;27.50;;;4.00;95.10;;;;;;5034206;28;20014;-78
2021/11/07 04:42:02;;;;;;;30.02;24.95;;;3.90;95.20;;;;;;5032975;28;20017;-77
2021/11/07 04:44:28;;;;;;;31.83;25.27;;;3.90;95.60;;;;;;5039951;28;20493;-77
2021/11/07 04:46:55;;;;;;;28.60;22.75;;;3.90;95.70;;;;;;5034744;28;20041;-78
2021/11/07 04:49:21;;;;;;;28.35;23.50;;;3.90;95.50;;;;;;5033913;28;20017;-78
2021/11/07 04:51:47;;;;;;;35.40;26.75;;;3.90;95.50;;;;;;5034052;28;20072;-78
2021/11/07 04:54:14;;;;;;;33.45;25.60;;;3.90;95.80;;;;;;5034085;28;20443;-78
2021/11/07 04:56:40;;;;;;;42.13;30.33;;;3.90;96.20;;;;;;5032586;28;20087;-76
2021/11/07 04:59:06;;;;;;;37.95;28.52;;;4.00;96.80;;;;;;5041077;28;20018;-78
2021/11/07 05:01:32;;;;;;;35.00;27.35;;;4.10;96.90;;;;;;5040336;28;20079;-79
2021/11/07 05:03:57;;;;;;;33.42;25.85;;;4.20;96.80;;;;;;5034541;28;20030;-77
2021/11/07 05:06:23;;;;;;;27.08;21.73;;;4.30;96.70;;;;;;5034102;28;20115;-77
2021/11/07 05:08:49;;;;;;;25.73;20.63;;;4.50;96.90;;;;;;5033761;28;20032;-77
2021/11/07 05:11:15;;;;;;;26.60;20.45;;;4.80;96.40;;;;;;5034125;28;20029;-77
2021/11/07 05:13:41;;;;;;;25.67;21.02;;;5.10;95.80;;;;;;5032370;28;20118;-78
2021/11/07 05:16:07;;;;;;;22.35;19.58;;;5.40;94.80;;;;;;5033891;28;20075;-78
2021/11/07 05:18:33;;;;;;;22.70;18.08;;;5.70;93.90;;;;;;5033806;28;20455;-77
2021/11/07 05:20:58;;;;;;;21.75;18.25;;;6.00;93.00;;;;;;5031978;28;20057;-78
2021/11/07 05:23:24;;;;;;;22.63;18.20;;;6.40;92.20;;;;;;5032560;28;20037;-76
2021/11/07 05:25:50;;;;;;;23.50;17.15;;;6.90;91.20;;;;;;5032065;28;20022;-77
2021/11/07 05:28:16;;;;;;;22.05;16.92;;;7.30;90.00;;;;;;5033392;28;20071;-78
2021/11/07 05:30:42;;;;;;;19.73;16.33;;;7.80;87.80;;;;;;5032300;28;20448;-77
2021/11/07 05:33:08;;;;;;;20.35;16.02;;;8.20;85.50;;;;;;5033389;28;20029;-77
2021/11/07 05:35:34;;;;;;;20.83;15.77;;;8.90;82.70;;;;;;5033415;28;20025;-78
2021/11/07 05:38:00;;;;;;;19.65;14.80;;;9.40;80.20;;;;;;5031946;28;20032;-77
2021/11/07 05:40:26;;;;;;;19.17;15.30;;;9.80;77.80;;;;;;5032240;28;20032;-77
2021/11/07 05:42:52;;;;;;;17.80;15.00;;;10.20;75.40;;;;;;5032665;28;20049;-76
2021/11/07 05:45:18;;;;;;;20.85;15.45;;;10.50;74.10;;;;;;5032179;28;20025;-77
2021/11/07 05:47:44;;;;;;;20.38;15.32;;;10.80;72.70;;;;;;5033137;28;20101;-77
2021/11/07 05:50:12;;;;;;;19.90;15.27;;;11.10;71.50;;;;;;5033243;28;20057;-77
2021/11/07 05:52:37;;;;;;;21.23;14.88;;;11.50;70.20;;;;;;5033641;28;20017;-77
2021/11/07 05:55:04;;;;;;;19.92;15.68;;;11.80;69.10;;;;;;5041162;28;20028;-77
2021/11/07 05:57:30;;;;;;;19.98;15.10;;;12.00;67.90;;;;;;5037856;28;20028;-77
2021/11/07 05:59:55;;;;;;;20.63;15.52;;;12.40;67.10;;;;;;5036161;28;20030;-78
2021/11/07 06:02:21;;;;;;;20.70;15.00;;;12.70;66.00;;;;;;5032568;28;20018;-77
2021/11/07 06:04:48;;;;;;;18.25;13.95;;;12.90;64.90;;;;;;5028032;28;20037;-76
2021/11/07 06:07:14;;;;;;;17.25;13.10;;;13.20;64.40;;;;;;5022955;28;20017;-77
2021/11/07 06:09:40;;;;;;;20.83;13.45;;;13.60;63.50;;;;;;5037143;28;20073;-76
2021/11/07 06:12:06;;;;;;;16.02;12.73;;;14.00;62.50;;;;;;5040738;28;20418;-76
2021/11/07 06:14:32;;;;;;;18.15;12.85;;;14.30;61.50;;;;;;5040241;28;20429;-77
2021/11/07 06:16:58;;;;;;;16.77;12.52;;;14.70;60.50;;;;;;5035669;28;20109;-77
2021/11/07 06:19:24;;;;;;;16.13;12.40;;;15.00;60.00;;;;;;5036932;28;20097;-77
2021/11/07 06:21:51;;;;;;;16.00;12.63;;;15.30;59.30;;;;;;5035997;28;20112;-76
2021/11/07 06:24:23;;;;;;;14.48;12.05;;;15.60;58.30;;;;;;5035141;28;20076;-77
2021/11/07 06:26:50;;;;;;;16.02;12.55;;;15.90;57.10;;;;;;5035715;28;20515;-76
2021/11/07 06:29:16;;;;;;;16.33;13.25;;;16.20;56.70;;;;;;5034201;28;20021;-76
2021/11/07 06:31:42;;;;;;;15.45;12.40;;;16.40;55.90;;;;;;5036102;28;20502;-76
2021/11/07 06:34:08;;;;;;;14.57;12.38;;;16.60;55.60;;;;;;5035822;28;20018;-77
2021/11/07 06:36:34;;;;;;;15.80;12.25;;;16.70;54.90;;;;;;5036520;28;20074;-75
2021/11/07 06:39:01;;;;;;;16.23;12.55;;;16.80;54.10;;;;;;5036071;28;20120;-76
2021/11/07 06:41:26;;;;;;;16.10;12.82;;;16.90;54.20;;;;;;5034807;28;20100;-76
2021/11/07 06:43:54;;;;;;;15.05;12.38;;;17.10;53.90;;;;;;5036448;28;20191;-75
2021/11/07 06:46:22;;;;;;;14.35;12.05;;;17.40;53.20;;;;;;5035873;28;20028;-75
2021/11/07 06:48:49;;;;;;;14.30;11.57;;;17.60;52.40;;;;;;5037529;28;20087;-76
2021/11/07 06:51:16;;;;;;;14.98;12.13;;;17.60;51.70;;;;;;5040180;28;20080;-76
2021/11/07 06:53:42;;;;;;;14.05;11.43;;;17.80;51.70;;;;;;5038046;28;20032;-75
2021/11/07 06:56:08;;;;;;;13.07;11.30;;;18.00;51.60;;;;;;5035427;28;20033;-76
2021/11/07 06:58:34;;;;;;;15.05;12.10;;;18.30;51.10;;;;;;5034713;28;20025;-77
2021/11/07 07:01:00;;;;;;;16.20;12.00;;;18.50;50.00;;;;;;5035601;28;20028;-76
2021/11/07 07:03:26;;;;;;;17.15;12.65;;;18.60;50.20;;;;;;5068207;28;20033;-76
2021/11/07 07:05:52;;;;;;;14.25;12.10;;;19.00;49.40;;;;;;5022183;28;20021;-76
2021/11/07 07:08:25;;;;;;;16.27;12.23;;;19.00;48.70;;;;;;5036018;28;20020;-77
2021/11/07 07:10:58;;;;;;;14.77;12.23;;;18.90;48.50;;;;;;5033786;28;20021;-77
2021/11/07 07:13:35;;;;;;;20.88;14.43;;;18.70;48.30;;;;;;5035684;28;20413;-76
2021/11/07 07:16:25;;;;;;;18.27;12.68;;;18.80;49.10;;;;;;5034528;28;20036;-77
2021/11/07 07:32:42;;;;;;;18.85;12.10;;;20.10;47.70;;;;;;5025896;28;20112;-76
2021/11/07 07:34:42;;;;;;;16.35;11.68;;;20.20;47.40;;;;;;5023030;28;20459;-76
2021/11/07 07:37:08;;;;;;;15.45;11.82;;;20.30;47.40;;;;;;5034271;28;20021;-76
2021/11/07 07:39:34;;;;;;;15.13;12.07;;;20.40;47.00;;;;;;5034656;28;20021;-75
2021/11/07 07:41:59;;;;;;;20.10;11.48;;;20.90;46.90;;;;;;5037779;28;20445;-78
2021/11/07 07:44:25;;;;;;;17.80;12.32;;;21.30;46.40;;;;;;5041777;28;20105;-77
2021/11/07 07:46:51;;;;;;;13.40;11.25;;;21.50;46.10;;;;;;5042166;28;20017;-76
2021/11/07 07:49:19;;;;;;;16.25;12.13;;;21.60;45.80;;;;;;5036498;28;20447;-75
2021/11/07 07:51:47;;;;;;;18.20;12.82;;;21.70;45.50;;;;;;5033532;28;20017;-76
2021/11/07 07:54:12;;;;;;;19.40;13.15;;;21.60;44.50;;;;;;5023268;28;20029;-75
2021/11/07 07:56:40;;;;;;;18.27;12.57;;;21.40;44.70;;;;;;5033877;28;20418;-76
2021/11/07 07:59:06;;;;;;;15.40;13.10;;;21.30;44.80;;;;;;5035301;28;20013;-75
2021/11/07 08:01:33;;;;;;;18.17;13.02;;;21.70;44.60;;;;;;5035270;28;20025;-75
2021/11/07 08:03:59;;;;;;;21.40;14.48;;;21.70;43.70;;;;;;5034686;28;20017;-76
2021/11/07 08:06:25;;;;;;;19.05;14.32;;;21.40;43.80;;;;;;5034949;28;20021;-74
2021/11/07 08:08:51;;;;;;;20.38;14.10;;;21.30;44.40;;;;;;5033007;28;20095;-75
2021/11/07 08:11:18;;;;;;;24.58;16.23;;;21.50;44.90;;;;;;5035330;28;20112;-76
2021/11/07 08:13:47;;;;;;;23.45;15.75;;;21.60;44.20;;;;;;5033588;28;20079;-76
2021/11/07 08:16:15;;;;;;;25.05;14.52;;;21.60;44.60;;;;;;5033875;28;20017;-75
2021/11/07 08:18:41;;;;;;;28.83;17.63;;;21.80;44.60;;;;;;5033128;28;20112;-76
2021/11/07 08:21:07;;;;;;;58.33;33.83;;;22.00;44.10;;;;;;5033079;28;20029;-75
2021/11/07 08:23:32;;;;;;;53.35;31.30;;;22.10;43.80;;;;;;5032365;28;20033;-76
2021/11/07 08:26:01;;;;;;;54.22;32.17;;;21.80;43.30;;;;;;5034516;28;20167;-76
2021/11/07 08:28:27;;;;;;;44.42;27.35;;;21.70;43.50;;;;;;5033314;28;20059;-76
2021/11/07 08:30:54;;;;;;;33.92;21.13;;;21.40;43.40;;;;;;5032972;28;20021;-76
2021/11/07 08:33:19;;;;;;;26.23;15.20;;;21.10;44.80;;;;;;5034366;28;20057;-76
2021/11/07 08:35:47;;;;;;;23.48;14.95;;;21.20;45.90;;;;;;5033289;28;20095;-76
2021/11/07 08:38:25;;;;;;;17.65;13.20;;;21.40;44.80;;;;;;5022079;28;20022;-75
2021/11/07 08:40:54;;;;;;;23.20;14.95;;;21.70;45.00;;;;;;5041948;28;20021;-76
2021/11/07 09:10:05;;;;;;;53.28;30.02;;;21.00;45.40;;;;;;5037382;28;20104;-75
2021/11/07 09:12:31;;;;;;;77.70;42.28;;;20.70;45.60;;;;;;5032828;28;20429;-75
2021/11/07 09:14:57;;;;;;;34.90;20.40;;;20.60;46.50;;;;;;5033561;28;20031;-76
2021/11/07 09:17:23;;;;;;;44.10;24.67;;;20.70;46.10;;;;;;5032018;28;20117;-76
2021/11/07 09:19:53;;;;;;;51.83;22.33;;;20.50;46.50;;;;;;5033968;28;20101;-77
2021/11/07 09:22:38;;;;;;;45.42;19.35;;;20.30;47.00;;;;;;5033435;28;20459;-75
2021/11/07 09:25:09;;;;;;;40.60;14.70;;;20.30;47.30;;;;;;5033519;28;20379;-76
2021/11/07 09:27:43;;;;;;;48.30;25.23;;;20.40;47.50;;;;;;5033815;28;20056;-76
2021/11/07 09:30:28;;;;;;;72.40;38.28;;;20.50;47.20;;;;;;5032576;28;20029;-75
2021/11/07 09:33:08;;;;;;;66.32;29.45;;;20.10;47.10;;;;;;5033756;28;20013;-76
2021/11/07 09:35:49;;;;;;;64.50;32.75;;;20.00;47.60;;;;;;5039871;28;20045;-76
2021/11/07 09:38:23;;;;;;;83.32;41.85;;;20.00;47.50;;;;;;5038946;28;20116;-76
2021/11/07 09:41:09;;;;;;;111.75;51.83;;;19.70;47.20;;;;;;5024480;28;20364;-76
2021/11/07 09:43:41;;;;;;;82.50;43.90;;;19.20;47.90;;;;;;5023116;28;20049;-76
2021/11/07 09:46:19;;;;;;;97.88;48.10;;;18.60;49.00;;;;;;5033035;28;20045;-77
2021/11/07 09:48:52;;;;;;;122.40;54.50;;;18.30;50.00;;;;;;5031532;28;20026;-76
2021/11/07 09:51:20;;;;;;;138.18;60.08;;;18.20;50.90;;;;;;5033583;28;20340;-77
2021/11/07 09:53:54;;;;;;;86.90;44.13;;;18.40;51.00;;;;;;5033200;28;20037;-76
2021/11/07 09:56:21;;;;;;;68.43;35.92;;;18.70;50.30;;;;;;5031818;28;20068;-76
2021/11/07 09:58:50;;;;;;;46.00;26.17;;;18.80;50.60;;;;;;5031567;28;20423;-76
2021/11/07 10:01:17;;;;;;;61.00;32.90;;;19.10;50.10;;;;;;5033073;28;20044;-76
2021/11/07 10:03:44;;;;;;;102.45;47.75;;;19.50;49.40;;;;;;5031787;28;20029;-77
2021/11/07 10:06:32;;;;;;;80.05;42.30;;;19.60;48.80;;;;;;5033483;28;20029;-76
2021/11/07 10:09:00;;;;;;;57.92;33.17;;;20.00;48.60;;;;;;5031490;28;20031;-76
2021/11/07 10:11:32;;;;;;;47.85;25.52;;;20.30;48.10;;;;;;5033388;28;20029;-76
2021/11/07 10:14:04;;;;;;;79.50;38.58;;;20.70;47.80;;;;;;5032970;28;20395;-76
2021/11/07 10:16:42;;;;;;;36.65;20.92;;;21.20;47.20;;;;;;5031665;28;20048;-75
2021/11/07 10:19:34;;;;;;;29.85;17.42;;;21.70;45.90;;;;;;5032802;28;20024;-74
2021/11/07 10:22:01;;;;;;;19.80;12.65;;;21.40;45.60;;;;;;5031809;28;20399;-76
2021/11/07 10:24:39;;;;;;;20.08;11.43;;;21.40;46.20;;;;;;5031665;28;20043;-76
2021/11/07 10:27:13;;;;;;;51.63;30.38;;;21.80;45.80;;;;;;5032201;28;20032;-77
2021/11/07 10:30:00;;;;;;;47.75;27.45;;;22.00;44.90;;;;;;5033320;28;20018;-76
2021/11/07 10:32:41;;;;;;;48.65;29.08;;;21.80;44.50;;;;;;5038424;28;20030;-76
2021/11/07 10:38:18;;;;;;;55.13;28.95;;;21.40;45.60;;;;;;5032883;28;20520;-76
2021/11/07 10:41:11;;;;;;;30.75;16.23;;;21.10;45.80;;;;;;5032874;28;20443;-76
2021/11/07 10:54:21;;;;;;;24.95;12.38;;;20.90;46.30;;;;;;5024098;28;20078;-76
2021/11/07 10:57:07;;;;;;;31.00;16.55;;;21.10;46.00;;;;;;5035811;28;20017;-75
2021/11/07 10:59:32;;;;;;;19.10;9.40;;;21.20;44.80;;;;;;5034838;28;20021;-76
2021/11/07 11:01:59;;;;;;;34.20;16.25;;;21.00;44.60;;;;;;5034972;28;20136;-76
2021/11/07 11:04:26;;;;;;;42.40;22.27;;;20.60;45.00;;;;;;5034730;28;20052;-75
2021/11/07 11:07:03;;;;;;;43.25;30.98;;;20.20;45.40;;;;;;5034628;28;20032;-75
2021/11/07 11:09:35;;;;;;;69.18;54.78;;;20.00;46.00;;;;;;5034949;28;20018;-77
2021/11/07 11:12:10;;;;;;;106.90;76.63;;;19.70;46.20;;;;;;5034384;28;20021;-76
2021/11/07 11:14:40;;;;;;;110.97;81.45;;;18.70;46.60;;;;;;5036172;28;20028;-76
2021/11/07 11:17:12;;;;;;;42.88;32.10;;;17.80;48.10;;;;;;5034259;28;20025;-76
2021/11/07 11:19:55;;;;;;;35.15;27.42;;;16.80;49.80;;;;;;5035910;28;20510;-77
2021/11/07 11:23:25;;;;;;;20.13;14.80;;;15.80;51.50;;;;;;5036673;28;20018;-77
2021/11/07 11:28:05;;;;;;;87.20;59.53;;;14.80;55.00;;;;;;5051626;28;20040;-76
2021/11/07 11:41:10;;;;;;;40.17;25.33;;;14.10;57.70;;;;;;5035245;28;20463;-76
2021/11/07 11:43:39;;;;;;;16.23;10.67;;;14.00;58.00;;;;;;5024303;28;20418;-78
2021/11/07 11:46:19;;;;;;;69.38;37.20;;;13.70;57.90;;;;;;5033975;28;20055;-76
2021/11/07 11:57:25;;;;;;;58.05;32.28;;;13.60;59.70;;;;;;5035030;28;20029;-78
2021/11/07 12:02:42;;;;;;;60.25;30.77;;;13.80;59.60;;;;;;5035195;28;20014;-77
2021/11/07 12:05:13;;;;;;;;;;;13.80;59.70;;;;;;5034431;28;20072;-77
2021/11/07 12:07:55;;;;;;;65.65;32.15;;;13.70;59.40;;;;;;5022054;28;19907;-77
2021/11/07 12:10:33;;;;;;;56.35;28.77;;;13.70;59.60;;;;;;5034900;28;20053;-76
2021/11/07 12:13:08;;;;;;;41.65;22.60;;;13.70;60.30;;;;;;5040872;28;20100;-78
2021/11/07 12:15:49;;;;;;;30.00;16.37;;;13.70;60.10;;;;;;5038414;28;20025;-77
2021/11/07 12:18:15;;;;;;;44.33;23.98;;;13.60;60.20;;;;;;5034206;28;20032;-77
2021/11/07 12:20:43;;;;;;;22.58;14.02;;;13.40;60.60;;;;;;5035706;28;20127;-75
2021/11/07 12:23:17;;;;;;;26.67;15.35;;;13.40;61.20;;;;;;5040433;28;20041;-76
2021/11/07 12:25:46;;;;;;;25.45;15.02;;;13.40;61.70;;;;;;5038116;28;20025;-76
2021/11/07 12:28:13;;;;;;;43.03;21.58;;;13.50;61.30;;;;;;5033693;28;20071;-77
2021/11/07 12:30:40;;;;;;;44.55;21.33;;;13.50;61.30;;;;;;5034921;28;20028;-77
2021/11/07 12:33:11;;;;;;;45.40;17.95;;;13.50;61.30;;;;;;5052872;28;20036;-77
2021/11/07 12:35:43;;;;;;;44.35;16.30;;;13.60;61.20;;;;;;5034835;28;20033;-76
2021/11/07 12:41:12;;;;;;;47.70;18.30;;;13.60;61.40;;;;;;5034034;28;20036;-78
2021/11/07 12:43:46;;;;;;;53.83;21.63;;;13.60;61.90;;;;;;5034708;28;20041;-78
2021/11/07 12:49:28;;;;;;;31.38;17.08;;;13.40;62.10;;;;;;5022432;28;20428;-78
2021/11/07 12:51:57;;;;;;;19.08;11.43;;;13.30;62.90;;;;;;5032596;28;20013;-76
2021/11/07 12:54:24;;;;;;;13.82;9.65;;;13.00;63.40;;;;;;5034542;28;20541;-77
2021/11/07 12:57:03;;;;;;;14.80;9.77;;;12.90;63.90;;;;;;5033770;28;20109;-77
2021/11/07 12:59:44;;;;;;;14.02;10.13;;;12.60;64.50;;;;;;5034435;28;20552;-77
2021/11/07 13:02:10;;;;;;;14.80;9.43;;;12.50;64.90;;;;;;5033978;28;20060;-77
2021/11/07 13:04:45;;;;;;;14.35;9.52;;;12.40;65.20;;;;;;5032430;28;20036;-76
2021/11/07 13:10:19;;;;;;;12.75;8.63;;;12.10;65.70;;;;;;5033391;28;20059;-77
2021/11/07 13:12:57;;;;;;;11.85;8.52;;;12.00;66.00;;;;;;5032300;28;20025;-76
2021/11/07 13:18:44;;;;;;;14.55;9.68;;;11.70;67.00;;;;;;5040571;28;20033;-77
2021/11/07 13:29:51;;;;;;;11.68;8.77;;;11.30;67.90;;;;;;5033155;28;19901;-78
2021/11/07 13:35:26;;;;;;;12.50;8.38;;;11.20;68.40;;;;;;5019694;28;19901;-78
2021/11/07 13:38:06;;;;;;;17.85;10.55;;;11.20;69.20;;;;;;5033047;28;20018;-77
2021/11/07 13:40:37;;;;;;;14.98;10.35;;;11.10;69.50;;;;;;5032914;28;20022;-78
2021/11/07 13:43:13;;;;;;;13.82;10.10;;;11.10;69.90;;;;;;5034398;28;20099;-78
2021/11/07 13:45:42;;;;;;;14.27;10.20;;;11.10;70.30;;;;;;5039506;28;20083;-77
2021/11/07 13:48:31;;;;;;;16.80;11.30;;;11.10;70.40;;;;;;5032004;28;20021;-77
2021/11/07 13:51:00;;;;;;;14.05;10.20;;;11.10;70.50;;;;;;5034545;28;20029;-78
2021/11/07 13:53:32;;;;;;;23.10;13.20;;;11.10;70.10;;;;;;5028791;28;20025;-77
2021/11/07 13:56:02;;;;;;;13.80;9.20;;;11.10;70.30;;;;;;5031728;28;20067;-78
2021/11/07 13:58:31;;;;;;;15.02;10.85;;;11.00;70.10;;;;;;5031432;28;20025;-78
2021/11/07 14:01:00;;;;;;;13.27;10.15;;;11.00;70.30;;;;;;5031415;28;20131;-76
2021/11/07 14:03:26;;;;;;;16.73;11.07;;;11.00;70.50;;;;;;5033354;28;20053;-77
2021/11/07 14:08:46;;;;;;;14.57;9.93;;;10.90;71.00;;;;;;5033171;28;20017;-78
2021/11/07 14:11:13;;;;;;;13.93;10.70;;;10.90;71.30;;;;;;5033072;28;20017;-77
2021/11/07 14:13:41;;;;;;;16.85;11.32;;;10.90;71.40;;;;;;5038043;28;20108;-76
2021/11/07 14:16:08;;;;;;;15.15;11.45;;;10.80;71.50;;;;;;5037017;28;20021;-78
2021/11/07 14:18:42;;;;;;;15.90;11.00;;;10.80;71.70;;;;;;5032519;28;20425;-78
2021/11/07 14:21:08;;;;;;;16.00;11.15;;;10.80;72.10;;;;;;5034129;28;20025;-77
2021/11/07 14:26:08;;;;;;;14.77;11.15;;;10.80;72.40;;;;;;5037010;28;20017;-78
2021/11/07 14:28:49;;;;;;;14.23;10.43;;;10.80;72.60;;;;;;5036834;28;20014;-78
2021/11/07 14:31:20;;;;;;;16.45;12.25;;;10.80;72.50;;;;;;5036606;28;20033;-77
2021/11/07 14:34:07;;;;;;;16.55;11.55;;;10.80;72.20;;;;;;5035604;28;20025;-77
2021/11/07 14:36:45;;;;;;;13.98;10.07;;;10.80;72.30;;;;;;5035655;28;20017;-77
2021/11/07 14:56:30;;;;;;;15.48;9.85;;;10.60;73.10;;;;;;5037522;28;20022;-76
2021/11/07 14:59:08;;;;;;;16.80;12.13;;;10.60;73.50;;;;;;5036179;28;20014;-78
2021/11/07 15:01:39;;;;;;;17.15;12.35;;;10.60;73.80;;;;;;5024148;28;20134;-77
2021/11/07 15:09:03;;;;;;;21.15;15.63;;;10.70;74.40;;;;;;5042444;28;20104;-75
2021/11/07 15:17:06;;;;;;;14.82;10.50;;;10.80;73.90;;;;;;5024695;28;20029;-77
2021/11/07 15:19:53;;;;;;;16.00;10.70;;;10.80;73.90;;;;;;5035167;28;20017;-77
2021/11/07 15:22:35;;;;;;;15.07;11.35;;;10.80;73.90;;;;;;5049327;28;20014;-77
2021/11/07 15:25:06;;;;;;;15.95;11.13;;;10.80;74.00;;;;;;5035918;28;20025;-77
2021/11/07 15:27:31;;;;;;;16.50;10.90;;;10.70;74.20;;;;;;5034666;28;20028;-77
2021/11/07 15:30:01;;;;;;;18.85;11.77;;;10.70;74.20;;;;;;5034722;28;20455;-78
2021/11/07 15:32:34;;;;;;;16.63;10.68;;;10.70;74.50;;;;;;5034958;28;20097;-78
2021/11/07 15:35:00;;;;;;;14.45;10.25;;;10.70;74.60;;;;;;5035617;28;20029;-79